This is the latest recevied weather packets stored in our database for station/object VA7SCH-13. If no packets are shown the sender has not sent any weather packets the latest 10 day(s).
| Time | Temp. | Humidity | Pressure | Rain* | Wind** | Luminosity | Snow |
|---|---|---|---|---|---|---|---|
| 1778206527 | 23.89° C | 29% | 1013.5 hPa | 0 mm | - | - | - |
| 1778205327 | 24.44° C | 28% | 1013.5 hPa | 0 mm | - | - | - |
| 1778204127 | 25° C | 25% | 1013.5 hPa | 0 mm | - | - | - |
| 1778199347 | 26.11° C | 24% | 1014.7 hPa | 0 mm | - | - | - |
| 1778198726 | 26.11° C | 25% | 1014.6 hPa | 0 mm | - | - | - |
| 1778195747 | 26.67° C | 24% | 1015 hPa | 0 mm | - | - | - |
| 1778195126 | 26.67° C | 24% | 1015 hPa | 0 mm | - | - | - |
| 1778194527 | 26.67° C | 24% | 1016.1 hPa | 0 mm | - | - | - |
| 1778190947 | 26.11° C | 25% | 1016.2 hPa | 0 mm | - | - | - |
| 1778188547 | 25.56° C | 25% | 1017.4 hPa | 0 mm | - | - | - |
| 1778186725 | 26.11° C | 25% | 1017.5 hPa | 0 mm | - | - | - |
| 1778183727 | 25° C | 26% | 1018.7 hPa | 0 mm | - | - | - |
| 1778180725 | 23.89° C | 29% | 1018.6 hPa | 0 mm | - | - | - |
| 1778177124 | 22.78° C | 33% | 1018.8 hPa | 0 mm | - | - | - |
| 1778175324 | 21.67° C | 35% | 1019.7 hPa | 0 mm | - | - | - |
| 1778171124 | 20.56° C | 40% | 1020 hPa | 0 mm | - | - | - |
| 1778168724 | 19.44° C | 43% | 1019.8 hPa | 0 mm | - | - | - |
| 1778166324 | 16.11° C | 48% | 1019.6 hPa | 0 mm | - | - | - |
| 1778162123 | 11.67° C | 65% | 1019.3 hPa | 0 mm | - | - | - |
| 1778156123 | 11.67° C | 64% | 1019.7 hPa | 0 mm | - | - | - |
| 1778152523 | 11.67° C | 64% | 1018.9 hPa | 0 mm | - | - | - |
| 1778144722 | 13.33° C | 58% | 1019 hPa | 0 mm | - | - | - |
| 1778142321 | 13.89° C | 56% | 1017.8 hPa | 0 mm | - | - | - |
| 1778141741 | 14.44° C | 56% | 1017.8 hPa | 0 mm | - | - | - |
| 1778139321 | 15° C | 55% | 1017.7 hPa | 0 mm | - | - | - |
* Rain latest hour (hover to see other rain measurements)
** Current wind speed in m/s (hover to see current wind gust speed)